createdAt,value
2022-07-28T00:00:44.506Z,99.99
2022-07-28T00:01:44.423Z,99.99
2022-07-28T00:02:44.643Z,99.99
2022-07-28T00:03:44.501Z,99.99
2022-07-28T00:04:44.499Z,99.99
2022-07-28T00:05:44.335Z,99.99
2022-07-28T00:06:44.323Z,99.99
2022-07-28T00:07:44.312Z,99.99
2022-07-28T00:08:44.326Z,99.99
2022-07-28T00:09:44.380Z,99.99
2022-07-28T00:10:44.363Z,99.99
2022-07-28T00:11:50.255Z,99.99
2022-07-28T00:12:45.309Z,99.99
2022-07-28T00:13:44.249Z,99.99
2022-07-28T00:14:44.324Z,99.99
2022-07-28T00:15:44.223Z,99.99
2022-07-28T00:16:44.240Z,99.99
2022-07-28T00:17:44.201Z,99.99
2022-07-28T00:18:44.340Z,99.99
2022-07-28T00:19:44.195Z,99.99
2022-07-28T00:20:44.167Z,99.99
2022-07-28T00:21:44.160Z,99.99
2022-07-28T00:22:44.143Z,99.99
2022-07-28T00:23:44.177Z,99.99
2022-07-28T00:24:44.137Z,99.99
2022-07-28T00:25:44.119Z,99.99
2022-07-28T00:26:46.547Z,99.99
2022-07-28T00:27:44.105Z,99.99
2022-07-28T00:28:44.127Z,99.99
2022-07-28T00:29:50.263Z,99.99
2022-07-28T00:30:45.071Z,99.99
2022-07-28T00:31:44.077Z,99.99
2022-07-28T00:32:44.033Z,99.99
2022-07-28T00:33:44.066Z,99.99
2022-07-28T00:34:44.022Z,99.99
2022-07-28T00:35:48.677Z,99.99
2022-07-28T00:36:43.993Z,99.99
2022-07-28T00:37:44.029Z,99.99
2022-07-28T00:38:45.949Z,99.99
2022-07-28T00:39:44.959Z,99.99
2022-07-28T00:40:43.948Z,99.99
2022-07-28T00:41:43.939Z,99.99
2022-07-28T00:42:43.929Z,99.99
2022-07-28T00:43:43.949Z,99.99
2022-07-28T00:44:43.901Z,99.99
2022-07-28T00:45:43.891Z,99.99
2022-07-28T00:46:43.921Z,99.99
2022-07-28T00:47:44.704Z,99.99
2022-07-28T00:48:43.963Z,99.99
2022-07-28T00:49:43.850Z,99.99
2022-07-28T00:50:43.832Z,99.99
2022-07-28T00:51:43.827Z,99.99
2022-07-28T00:52:43.865Z,99.99
2022-07-28T00:53:43.836Z,99.99
2022-07-28T00:54:43.785Z,99.99
2022-07-28T00:56:05.412Z,99.99
2022-07-28T00:56:44.769Z,99.99
2022-07-28T00:57:43.809Z,99.99
2022-07-28T00:58:43.753Z,99.99
2022-07-28T00:59:43.742Z,99.99
2022-07-28T01:00:43.717Z,99.99
2022-07-28T01:01:43.827Z,99.99
2022-07-28T01:02:43.820Z,99.99
2022-07-28T01:03:43.724Z,99.99
2022-07-28T01:04:43.701Z,99.99
2022-07-28T01:05:44.361Z,99.99
2022-07-28T01:06:43.671Z,99.99
2022-07-28T01:07:43.645Z,99.99
2022-07-28T01:08:43.672Z,99.99
2022-07-28T01:09:43.648Z,99.99
2022-07-28T01:10:43.636Z,99.99
2022-07-28T01:11:43.600Z,99.99
2022-07-28T01:12:43.596Z,99.99
2022-07-28T01:13:43.606Z,99.99
2022-07-28T01:14:43.573Z,99.99
2022-07-28T01:15:43.613Z,99.99
2022-07-28T01:16:43.544Z,99.99
2022-07-28T01:17:43.531Z,99.99
2022-07-28T01:18:43.552Z,99.99
2022-07-28T01:19:43.508Z,99.99
2022-07-28T01:20:43.608Z,99.99
2022-07-28T01:21:43.479Z,99.99
2022-07-28T01:22:43.480Z,99.99
2022-07-28T01:23:43.509Z,99.99
2022-07-28T01:24:43.583Z,99.99
2022-07-28T01:25:48.758Z,99.99
2022-07-28T01:26:44.534Z,99.99
2022-07-28T01:27:43.426Z,99.99
2022-07-28T01:28:43.438Z,99.99
2022-07-28T01:29:43.517Z,99.99
2022-07-28T01:30:43.572Z,99.99
2022-07-28T01:31:43.417Z,99.99
2022-07-28T01:32:43.465Z,99.99
2022-07-28T01:33:43.461Z,99.99
2022-07-28T01:34:43.364Z,99.99
2022-07-28T01:35:43.328Z,99.99
2022-07-28T01:36:43.327Z,99.99
2022-07-28T01:37:43.315Z,99.99
2022-07-28T01:38:43.323Z,99.99
2022-07-28T01:39:43.383Z,99.99
2022-07-28T01:40:43.270Z,99.99
2022-07-28T01:41:43.268Z,99.99
2022-07-28T01:42:43.374Z,99.99
2022-07-28T01:43:43.268Z,99.99
2022-07-28T01:44:43.239Z,99.99
2022-07-28T01:45:43.214Z,99.99
2022-07-28T01:46:43.273Z,99.99
2022-07-28T01:47:43.188Z,99.99
2022-07-28T01:48:45.585Z,99.99
2022-07-28T01:49:43.162Z,99.99
2022-07-28T01:50:43.181Z,99.99
2022-07-28T01:51:43.139Z,99.99
2022-07-28T01:52:43.135Z,99.99
2022-07-28T01:53:43.163Z,99.99
2022-07-28T01:54:43.108Z,99.99
2022-07-28T01:55:43.122Z,99.99
2022-07-28T01:56:43.098Z,99.99
2022-07-28T01:57:43.076Z,99.99
2022-07-28T01:58:43.101Z,99.99
2022-07-28T01:59:43.048Z,99.99
2022-07-28T02:00:43.045Z,99.99
2022-07-28T02:01:43.138Z,99.99
2022-07-28T02:02:43.020Z,99.99
2022-07-28T02:03:43.039Z,99.99
2022-07-28T02:04:43.057Z,99.99
2022-07-28T02:05:42.988Z,99.99
2022-07-28T02:06:42.967Z,99.99
2022-07-28T02:07:42.967Z,99.99
2022-07-28T02:08:42.984Z,99.99
2022-07-28T02:09:42.945Z,99.99
2022-07-28T02:10:42.935Z,99.99
2022-07-28T02:11:42.926Z,99.99
2022-07-28T02:12:42.909Z,99.99
2022-07-28T02:13:42.923Z,99.99
2022-07-28T02:14:42.891Z,99.99
2022-07-28T02:15:42.930Z,99.99
2022-07-28T02:16:42.863Z,99.99
2022-07-28T02:17:42.847Z,99.99
2022-07-28T02:18:42.871Z,99.99
2022-07-28T02:19:42.845Z,99.99
2022-07-28T02:20:42.815Z,99.99
2022-07-28T02:21:42.797Z,99.99
2022-07-28T02:22:42.813Z,99.99
2022-07-28T02:23:42.830Z,99.99
2022-07-28T02:24:42.830Z,99.99
2022-07-28T02:25:42.773Z,99.99
2022-07-28T02:26:42.764Z,99.99
2022-07-28T02:27:42.749Z,99.99
2022-07-28T02:28:42.745Z,99.99
2022-07-28T02:29:50.835Z,99.99
2022-07-28T02:30:43.781Z,99.99
2022-07-28T02:31:42.710Z,99.99
2022-07-28T02:32:42.805Z,99.99
2022-07-28T02:33:59.324Z,99.99
2022-07-28T02:34:43.747Z,99.99
2022-07-28T02:35:42.663Z,99.99
2022-07-28T02:36:42.667Z,99.99
2022-07-28T02:37:42.629Z,99.99
2022-07-28T02:38:42.630Z,99.99
2022-07-28T02:39:42.671Z,99.99
2022-07-28T02:40:43.603Z,99.99
2022-07-28T02:41:42.669Z,99.99
2022-07-28T02:42:42.614Z,99.99
2022-07-28T02:43:50.084Z,99.99
2022-07-28T02:44:43.637Z,99.99
2022-07-28T02:45:42.541Z,99.99
2022-07-28T02:46:42.588Z,99.99
2022-07-28T02:47:42.551Z,99.99
2022-07-28T02:48:42.539Z,99.99
2022-07-28T02:49:42.549Z,99.99
2022-07-28T02:50:42.500Z,99.99
2022-07-28T02:51:42.575Z,99.99
2022-07-28T02:52:42.475Z,99.99
2022-07-28T02:53:42.455Z,99.99
2022-07-28T02:54:42.487Z,99.99
2022-07-28T02:55:42.427Z,99.99
2022-07-28T02:56:42.439Z,99.99
2022-07-28T02:57:43.410Z,99.99
2022-07-28T02:58:42.415Z,99.99
2022-07-28T02:59:42.575Z,99.99
2022-07-28T03:00:42.394Z,99.99
2022-07-28T03:01:42.451Z,99.99
2022-07-28T03:02:42.381Z,99.99
2022-07-28T03:03:44.158Z,99.99
2022-07-28T03:04:42.584Z,99.99
2022-07-28T03:05:42.400Z,99.99
2022-07-28T03:06:42.314Z,99.99
2022-07-28T03:07:50.675Z,99.99
2022-07-28T03:08:43.429Z,99.99
2022-07-28T03:09:42.344Z,99.99
2022-07-28T03:10:42.269Z,99.99
2022-07-28T03:11:42.284Z,99.99
2022-07-28T03:12:42.243Z,99.99
2022-07-28T03:13:42.296Z,99.99
2022-07-28T03:14:42.262Z,99.99
2022-07-28T03:15:42.206Z,99.99
2022-07-28T03:16:42.291Z,99.99
2022-07-28T03:17:42.181Z,99.99
2022-07-28T03:18:42.189Z,99.99
2022-07-28T03:19:42.206Z,99.99
2022-07-28T03:20:42.149Z,99.99
2022-07-28T03:21:42.155Z,99.99
2022-07-28T03:22:42.176Z,99.99
2022-07-28T03:23:42.125Z,99.99
2022-07-28T03:24:42.118Z,99.99
2022-07-28T03:25:42.144Z,99.99
2022-07-28T03:26:42.096Z,99.99
2022-07-28T03:27:42.070Z,99.99
2022-07-28T03:28:42.073Z,99.99
2022-07-28T03:29:42.039Z,99.99
2022-07-28T03:30:42.133Z,99.99
2022-07-28T03:31:42.033Z,99.99
2022-07-28T03:32:42.039Z,99.99
2022-07-28T03:33:42.008Z,99.99
2022-07-28T03:34:42.003Z,99.99
2022-07-28T03:35:42.032Z,99.99
2022-07-28T03:36:41.969Z,99.99
2022-07-28T03:37:41.976Z,99.99
2022-07-28T03:38:41.952Z,99.99
2022-07-28T03:39:41.933Z,99.99
2022-07-28T03:40:41.965Z,99.99
2022-07-28T03:41:41.914Z,99.99
2022-07-28T03:42:41.921Z,99.99
2022-07-28T03:43:41.895Z,99.99
2022-07-28T03:44:41.882Z,99.99
2022-07-28T03:45:41.924Z,99.99
2022-07-28T03:46:41.895Z,99.99
2022-07-28T03:47:41.851Z,99.99
2022-07-28T03:48:41.867Z,99.99
2022-07-28T03:49:41.817Z,99.99
2022-07-28T03:50:41.845Z,99.99
2022-07-28T03:51:41.901Z,99.99
2022-07-28T03:52:41.799Z,99.99
2022-07-28T03:53:41.775Z,99.99
2022-07-28T03:54:41.754Z,99.99
2022-07-28T03:55:41.811Z,99.99
2022-07-28T03:56:41.756Z,99.99
2022-07-28T03:57:41.747Z,99.99
2022-07-28T03:58:41.733Z,99.99
2022-07-28T03:59:41.707Z,99.99
2022-07-28T04:00:41.842Z,99.99
2022-07-28T04:01:41.732Z,99.99
2022-07-28T04:02:41.808Z,99.99
2022-07-28T04:03:43.804Z,99.99
2022-07-28T04:04:41.669Z,99.99
2022-07-28T04:05:41.681Z,99.99
2022-07-28T04:06:41.658Z,99.99
2022-07-28T04:07:41.650Z,99.99
2022-07-28T04:08:41.613Z,99.99
2022-07-28T04:09:41.693Z,99.99
2022-07-28T04:10:41.628Z,99.99
2022-07-28T04:11:41.576Z,99.99
2022-07-28T04:12:41.691Z,99.99
2022-07-28T04:13:41.543Z,99.99
2022-07-28T04:14:41.646Z,99.99
2022-07-28T04:15:41.630Z,99.99
2022-07-28T04:16:41.564Z,99.99
2022-07-28T04:17:42.384Z,99.99
2022-07-28T04:18:41.616Z,99.99
2022-07-28T04:19:41.578Z,99.99
2022-07-28T04:20:41.639Z,99.99
2022-07-28T04:21:41.457Z,99.99
2022-07-28T04:22:41.467Z,99.99
2022-07-28T04:23:41.437Z,99.99
2022-07-28T04:24:41.426Z,99.99
2022-07-28T04:25:41.469Z,99.99
2022-07-28T04:26:41.424Z,99.99
2022-07-28T04:27:41.401Z,99.99
2022-07-28T04:28:41.515Z,99.99
2022-07-28T04:29:41.465Z,99.99
2022-07-28T04:30:44.269Z,99.99
2022-07-28T04:31:41.353Z,99.99
2022-07-28T04:32:41.341Z,99.99
2022-07-28T04:33:41.321Z,99.99
2022-07-28T04:34:41.332Z,99.99
2022-07-28T04:35:41.389Z,99.78
2022-07-28T04:36:41.309Z,99.84
2022-07-28T04:37:41.280Z,98.25
2022-07-28T04:38:41.291Z,97.49
2022-07-28T04:39:41.258Z,96.94
2022-07-28T04:40:41.283Z,95.10
2022-07-28T04:41:41.339Z,94.59
2022-07-28T04:42:41.232Z,94.24
2022-07-28T04:43:41.227Z,92.10
2022-07-28T04:44:41.225Z,90.47
2022-07-28T04:45:45.953Z,90.16
2022-07-28T04:46:42.292Z,89.45
2022-07-28T04:47:42.069Z,88.67
2022-07-28T04:48:41.167Z,89.04
2022-07-28T04:49:41.143Z,88.12
2022-07-28T04:50:41.172Z,88.32
2022-07-28T04:51:41.121Z,89.47
2022-07-28T04:52:41.139Z,88.87
2022-07-28T04:53:41.155Z,88.83
2022-07-28T04:54:41.109Z,88.44
2022-07-28T04:55:41.176Z,87.14
2022-07-28T04:56:41.094Z,84.77
2022-07-28T04:57:41.079Z,83.10
2022-07-28T04:58:41.073Z,79.21
2022-07-28T04:59:41.026Z,79.38
2022-07-28T05:00:41.049Z,79.85
2022-07-28T05:01:41.159Z,81.12
2022-07-28T05:02:41.029Z,80.41
2022-07-28T05:03:41.014Z,77.75
2022-07-28T05:04:41.032Z,75.48
2022-07-28T05:05:40.969Z,73.43
2022-07-28T05:06:41.028Z,73.02
2022-07-28T05:07:40.963Z,76.12
2022-07-28T05:08:40.937Z,74.19
2022-07-28T05:09:40.936Z,73.46
2022-07-28T05:10:40.914Z,74.73
2022-07-28T05:11:40.949Z,74.69
2022-07-28T05:12:40.903Z,72.68
2022-07-28T05:13:40.876Z,73.05
2022-07-28T05:14:40.888Z,69.89
2022-07-28T05:15:40.889Z,71.40
2022-07-28T05:16:40.954Z,69.15
2022-07-28T05:17:40.852Z,66.93
2022-07-28T05:18:40.831Z,67.91
2022-07-28T05:19:40.814Z,68.08
2022-07-28T05:20:40.819Z,66.87
2022-07-28T05:21:40.822Z,69.89
2022-07-28T05:22:40.830Z,68.58
2022-07-28T05:23:44.335Z,68.38
2022-07-28T05:24:41.745Z,64.92
2022-07-28T05:25:40.743Z,68.15
2022-07-28T05:26:40.787Z,66.13
2022-07-28T05:27:40.729Z,65.83
2022-07-28T05:28:40.726Z,65.50
2022-07-28T05:29:40.716Z,66.17
2022-07-28T05:30:41.699Z,68.05
2022-07-28T05:31:40.755Z,64.70
2022-07-28T05:32:40.696Z,62.66
2022-07-28T05:33:40.665Z,62.56
2022-07-28T05:34:40.646Z,61.15
2022-07-28T05:35:40.675Z,61.46
2022-07-28T05:36:40.685Z,59.72
2022-07-28T05:37:40.614Z,62.00
2022-07-28T05:38:40.604Z,61.80
2022-07-28T05:39:40.630Z,60.62
2022-07-28T05:40:40.605Z,62.93
2022-07-28T05:41:40.615Z,63.33
2022-07-28T05:42:40.580Z,59.82
2022-07-28T05:43:40.567Z,60.82
2022-07-28T05:44:40.543Z,59.32
2022-07-28T05:45:40.589Z,58.84
2022-07-28T05:46:40.525Z,59.55
2022-07-28T05:47:40.522Z,59.45
2022-07-28T05:48:40.557Z,60.93
2022-07-28T05:49:40.477Z,59.89
2022-07-28T05:50:40.457Z,59.55
2022-07-28T05:51:41.963Z,59.14
2022-07-28T05:52:40.457Z,61.29
2022-07-28T05:53:40.439Z,61.66
2022-07-28T05:54:40.434Z,61.66
2022-07-28T05:55:57.797Z,60.85
2022-07-28T05:56:41.462Z,59.55
2022-07-28T05:57:40.460Z,61.25
2022-07-28T05:58:40.377Z,60.45
2022-07-28T05:59:40.369Z,61.80
2022-07-28T06:00:40.478Z,58.86
2022-07-28T06:01:40.431Z,60.53
2022-07-28T06:02:40.448Z,57.43
2022-07-28T06:03:42.504Z,61.97
2022-07-28T06:04:40.335Z,62.47
2022-07-28T06:05:59.230Z,59.11
2022-07-28T06:06:41.317Z,59.86
2022-07-28T06:07:42.891Z,59.56
2022-07-28T06:08:40.238Z,59.94
2022-07-28T06:09:44.896Z,60.44
2022-07-28T06:10:41.231Z,58.87
2022-07-28T06:11:40.257Z,58.91
2022-07-28T06:12:40.204Z,65.55
2022-07-28T06:13:40.226Z,59.92
2022-07-28T06:14:40.224Z,57.39
2022-07-28T06:15:40.193Z,55.40
2022-07-28T06:16:40.260Z,55.19
2022-07-28T06:17:40.187Z,55.44
2022-07-28T06:18:40.155Z,61.72
2022-07-28T06:19:40.133Z,57.39
2022-07-28T06:20:40.198Z,61.16
2022-07-28T06:21:41.499Z,55.34
2022-07-28T06:22:40.205Z,60.50
2022-07-28T06:23:40.095Z,58.31
2022-07-28T06:24:40.141Z,54.79
2022-07-28T06:25:40.115Z,52.57
2022-07-28T06:26:44.430Z,53.89
2022-07-28T06:27:40.057Z,53.74
2022-07-28T06:28:40.139Z,56.44
2022-07-28T06:29:40.027Z,53.54
2022-07-28T06:30:40.048Z,56.38
2022-07-28T06:31:40.200Z,52.94
2022-07-28T06:32:39.988Z,55.14
2022-07-28T06:33:40.036Z,57.58
2022-07-28T06:34:39.955Z,53.66
2022-07-28T06:35:48.324Z,51.40
2022-07-28T06:36:41.100Z,53.04
2022-07-28T06:37:39.937Z,51.72
2022-07-28T06:38:40.025Z,51.65
2022-07-28T06:39:39.922Z,53.24
2022-07-28T06:40:39.940Z,50.67
2022-07-28T06:41:39.933Z,52.34
2022-07-28T06:42:39.966Z,53.84
2022-07-28T06:43:39.894Z,51.92
2022-07-28T06:44:57.820Z,53.36
2022-07-28T06:45:40.847Z,51.94
2022-07-28T06:46:40.071Z,53.92
2022-07-28T06:47:41.622Z,51.97
2022-07-28T06:48:40.865Z,53.24
2022-07-28T06:49:39.807Z,51.54
2022-07-28T06:50:39.883Z,52.82
2022-07-28T06:51:39.823Z,51.72
2022-07-28T06:52:39.781Z,51.79
2022-07-28T06:53:39.782Z,51.84
2022-07-28T06:54:39.744Z,51.57
2022-07-28T06:55:41.367Z,54.29
2022-07-28T06:56:39.782Z,54.22
2022-07-28T06:57:39.721Z,51.50
2022-07-28T06:58:39.818Z,50.92
2022-07-28T06:59:39.705Z,52.37
2022-07-28T07:00:39.754Z,50.82
2022-07-28T07:01:39.665Z,50.32
2022-07-28T07:02:39.714Z,49.76
2022-07-28T07:03:39.673Z,49.16
2022-07-28T07:04:39.721Z,48.88
2022-07-28T07:05:39.671Z,51.32
2022-07-28T07:06:39.644Z,51.15
2022-07-28T07:07:43.010Z,48.73
2022-07-28T07:08:39.656Z,49.83
2022-07-28T07:09:39.588Z,50.30
2022-07-28T07:10:39.688Z,50.02
2022-07-28T07:11:39.597Z,50.62
2022-07-28T07:12:39.608Z,49.70
2022-07-28T07:13:39.567Z,49.30
2022-07-28T07:14:39.649Z,49.88
2022-07-28T07:15:39.528Z,48.41
2022-07-28T07:16:39.588Z,48.73
2022-07-28T07:17:39.554Z,51.20
2022-07-28T07:18:39.495Z,49.33
2022-07-28T07:19:39.481Z,48.50
2022-07-28T07:20:39.520Z,49.90
2022-07-28T07:21:39.450Z,50.92
2022-07-28T07:22:39.495Z,52.97
2022-07-28T07:23:39.454Z,51.25
2022-07-28T07:24:39.430Z,49.76
2022-07-28T07:25:39.413Z,47.33
2022-07-28T07:26:39.384Z,47.71
2022-07-28T07:27:39.436Z,51.52
2022-07-28T07:28:39.388Z,50.28
2022-07-28T07:29:39.362Z,45.51
2022-07-28T07:30:39.399Z,47.57
2022-07-28T07:31:39.380Z,45.23
2022-07-28T07:32:39.376Z,47.96
2022-07-28T07:33:39.325Z,47.27
2022-07-28T07:34:39.338Z,46.37
2022-07-28T07:35:39.310Z,51.40
2022-07-28T07:36:39.293Z,44.85
2022-07-28T07:37:39.296Z,47.42
2022-07-28T07:38:39.284Z,45.18
2022-07-28T07:39:39.269Z,45.75
2022-07-28T07:40:39.231Z,48.37
2022-07-28T07:41:39.234Z,46.38
2022-07-28T07:42:39.283Z,43.10
2022-07-28T07:43:39.231Z,46.03
2022-07-28T07:44:39.234Z,47.22
2022-07-28T07:45:39.198Z,49.88
2022-07-28T07:46:39.232Z,48.02
2022-07-28T07:47:39.199Z,43.14
2022-07-28T07:48:39.208Z,42.65
2022-07-28T07:49:45.294Z,41.42
2022-07-28T07:50:40.146Z,45.23
2022-07-28T07:51:39.120Z,47.80
2022-07-28T07:52:39.158Z,44.99
2022-07-28T07:53:39.111Z,44.49
2022-07-28T07:54:39.094Z,42.31
2022-07-28T07:55:39.082Z,44.57
2022-07-28T07:56:39.087Z,42.37
2022-07-28T07:57:39.143Z,42.01
2022-07-28T07:58:39.061Z,41.14
2022-07-28T07:59:39.075Z,45.36
2022-07-28T08:00:39.030Z,43.24
2022-07-28T08:01:40.553Z,43.15
2022-07-28T08:02:39.054Z,43.80
2022-07-28T08:03:38.977Z,40.92
2022-07-28T08:04:39.181Z,41.58
2022-07-28T08:05:39.001Z,47.14
2022-07-28T08:06:38.976Z,44.28
2022-07-28T08:07:39.016Z,46.01
2022-07-28T08:08:45.051Z,44.92
2022-07-28T08:09:39.926Z,45.32
2022-07-28T08:10:38.940Z,45.72
2022-07-28T08:11:38.938Z,46.57
2022-07-28T08:12:38.980Z,44.08
2022-07-28T08:13:38.915Z,49.04
2022-07-28T08:14:38.901Z,46.41
2022-07-28T08:15:38.882Z,45.49
2022-07-28T08:16:38.923Z,42.99
2022-07-28T08:17:38.926Z,45.92
2022-07-28T08:18:38.852Z,43.79
2022-07-28T08:19:38.849Z,42.43
2022-07-28T08:20:38.818Z,40.68
2022-07-28T08:21:38.828Z,42.41
2022-07-28T08:22:38.833Z,44.48
2022-07-28T08:23:38.806Z,45.67
2022-07-28T08:24:38.791Z,44.40
2022-07-28T08:25:38.789Z,43.38
2022-07-28T08:26:38.758Z,40.58
2022-07-28T08:27:38.783Z,40.25
2022-07-28T08:28:38.724Z,41.00
2022-07-28T08:29:38.745Z,38.68
2022-07-28T08:30:38.726Z,41.20
2022-07-28T08:31:38.795Z,38.10
2022-07-28T08:32:38.734Z,36.88
2022-07-28T08:33:54.212Z,38.16
2022-07-28T08:34:39.720Z,38.83
2022-07-28T08:35:38.699Z,36.44
2022-07-28T08:36:38.815Z,40.05
2022-07-28T08:37:38.698Z,39.12
2022-07-28T08:38:38.713Z,39.71
2022-07-28T08:39:38.654Z,40.66
2022-07-28T08:40:38.635Z,42.13
2022-07-28T08:41:38.600Z,40.33
2022-07-28T08:42:38.790Z,40.12
2022-07-28T08:43:38.647Z,41.53
2022-07-28T08:44:38.677Z,39.53
2022-07-28T08:45:38.546Z,39.06
2022-07-28T08:46:38.610Z,40.90
2022-07-28T08:47:58.802Z,41.39
2022-07-28T08:48:39.546Z,42.17
2022-07-28T08:49:39.303Z,42.22
2022-07-28T08:50:38.594Z,40.92
2022-07-28T08:51:38.545Z,39.40
2022-07-28T08:52:38.578Z,39.87
2022-07-28T08:53:38.468Z,40.31
2022-07-28T08:54:38.432Z,35.60
2022-07-28T08:55:38.471Z,37.21
2022-07-28T08:56:38.449Z,37.30
2022-07-28T08:57:38.434Z,38.04
2022-07-28T08:58:38.463Z,38.65
2022-07-28T08:59:38.420Z,38.98
2022-07-28T09:00:38.393Z,38.62
2022-07-28T09:01:39.140Z,39.29
2022-07-28T09:02:38.473Z,42.38
2022-07-28T09:03:38.491Z,36.17
2022-07-28T09:04:38.370Z,36.82
2022-07-28T09:05:38.402Z,35.69
2022-07-28T09:06:38.453Z,37.63
2022-07-28T09:07:38.331Z,33.59
2022-07-28T09:08:38.376Z,32.71
2022-07-28T09:09:38.346Z,33.77
2022-07-28T09:10:38.372Z,34.01
2022-07-28T09:11:38.308Z,35.50
2022-07-28T09:12:38.275Z,37.16
2022-07-28T09:13:38.547Z,37.56
2022-07-28T09:14:38.284Z,36.87
2022-07-28T09:15:38.342Z,36.88
2022-07-28T09:16:38.256Z,36.62
2022-07-28T09:17:38.245Z,37.87
2022-07-28T09:18:38.355Z,38.92
2022-07-28T09:19:38.291Z,35.96
2022-07-28T09:20:38.324Z,38.37
2022-07-28T09:21:38.230Z,36.66
2022-07-28T09:22:38.278Z,35.86
2022-07-28T09:23:43.213Z,39.28
2022-07-28T09:24:39.264Z,38.43
2022-07-28T09:25:38.168Z,37.07
2022-07-28T09:26:38.228Z,36.99
2022-07-28T09:27:38.112Z,36.98
2022-07-28T09:28:38.168Z,41.20
2022-07-28T09:29:38.242Z,37.48
2022-07-28T09:30:38.121Z,37.40
2022-07-28T09:31:39.109Z,39.67
2022-07-28T09:32:38.142Z,39.46
2022-07-28T09:33:42.270Z,39.00
2022-07-28T09:34:39.177Z,38.00
2022-07-28T09:35:38.101Z,40.15
2022-07-28T09:36:38.162Z,38.35
2022-07-28T09:37:38.009Z,36.48
2022-07-28T09:38:38.145Z,35.07
2022-07-28T09:39:38.020Z,34.54
2022-07-28T09:40:37.999Z,38.56
2022-07-28T09:41:38.002Z,35.87
2022-07-28T09:42:37.963Z,34.38
2022-07-28T09:43:38.103Z,31.84
2022-07-28T09:44:37.948Z,34.59
2022-07-28T09:45:37.954Z,36.70
2022-07-28T09:46:38.146Z,31.47
2022-07-28T09:47:38.122Z,31.19
2022-07-28T09:48:38.092Z,32.57
2022-07-28T09:49:37.990Z,33.98
2022-07-28T09:50:37.901Z,35.44
2022-07-28T09:51:37.974Z,32.28
2022-07-28T09:52:37.884Z,34.34
2022-07-28T09:53:37.912Z,33.98
2022-07-28T09:54:40.985Z,35.72
2022-07-28T09:55:37.907Z,31.89
2022-07-28T09:56:37.896Z,32.92
2022-07-28T09:57:37.809Z,32.71
2022-07-28T09:58:37.870Z,33.72
2022-07-28T09:59:37.791Z,33.17
2022-07-28T10:00:37.799Z,32.97
2022-07-28T10:01:37.788Z,33.79
2022-07-28T10:02:37.919Z,34.38
2022-07-28T10:03:37.794Z,33.70
2022-07-28T10:04:37.741Z,36.38
2022-07-28T10:05:37.905Z,35.63
2022-07-28T10:06:37.750Z,39.42
2022-07-28T10:07:37.732Z,38.65
2022-07-28T10:08:37.786Z,35.61
2022-07-28T10:09:37.728Z,33.48
2022-07-28T10:10:37.691Z,30.39
2022-07-28T10:11:41.596Z,30.50
2022-07-28T10:12:37.670Z,32.23
2022-07-28T10:13:37.643Z,31.14
2022-07-28T10:14:37.718Z,31.06
2022-07-28T10:15:37.684Z,31.04
2022-07-28T10:16:38.206Z,30.78
2022-07-28T10:17:37.649Z,32.12
2022-07-28T10:18:37.589Z,33.51
2022-07-28T10:19:37.626Z,36.83
2022-07-28T10:20:37.619Z,36.49
2022-07-28T10:21:37.583Z,36.05
2022-07-28T10:22:42.739Z,36.23
2022-07-28T10:23:38.601Z,39.24
2022-07-28T10:24:37.627Z,35.10
2022-07-28T10:25:37.542Z,32.79
2022-07-28T10:26:37.549Z,32.20
2022-07-28T10:27:37.510Z,35.38
2022-07-28T10:28:42.128Z,36.94
2022-07-28T10:29:38.595Z,32.93
2022-07-28T10:30:37.535Z,34.82
2022-07-28T10:31:37.492Z,34.59
2022-07-28T10:32:37.492Z,34.22
2022-07-28T10:33:37.456Z,34.87
2022-07-28T10:34:37.530Z,32.92
2022-07-28T10:35:51.034Z,35.08
2022-07-28T10:36:38.446Z,35.15
2022-07-28T10:37:37.419Z,34.36
2022-07-28T10:38:37.441Z,34.43
2022-07-28T10:39:37.440Z,33.91
2022-07-28T10:40:37.396Z,33.15
2022-07-28T10:41:37.411Z,33.23
2022-07-28T10:42:37.367Z,30.12
2022-07-28T10:43:37.358Z,33.07
2022-07-28T10:44:38.387Z,30.70
2022-07-28T10:46:03.206Z,30.65
2022-07-28T10:46:38.384Z,31.46
2022-07-28T10:47:37.348Z,35.03
2022-07-28T10:48:37.336Z,32.87
2022-07-28T10:49:37.369Z,35.78
2022-07-28T10:50:37.320Z,32.98
2022-07-28T10:51:53.903Z,33.15
2022-07-28T10:52:47.258Z,32.56
2022-07-28T10:53:38.264Z,32.05
2022-07-28T10:54:37.329Z,33.49
2022-07-28T10:55:37.235Z,31.64
2022-07-28T10:56:37.314Z,34.59
2022-07-28T10:57:37.318Z,32.08
2022-07-28T10:58:37.233Z,34.10
2022-07-28T10:59:37.318Z,34.71
2022-07-28T11:00:54.613Z,36.46
2022-07-28T11:01:53.628Z,35.79
2022-07-28T11:02:38.256Z,35.99
2022-07-28T11:03:37.269Z,33.20
2022-07-28T11:04:37.229Z,33.62
2022-07-28T11:05:37.163Z,36.21
2022-07-28T11:06:37.178Z,32.60
2022-07-28T11:07:37.248Z,33.77
2022-07-28T11:08:37.128Z,31.80
2022-07-28T11:09:37.116Z,33.67
2022-07-28T11:10:37.207Z,33.74
2022-07-28T11:11:37.202Z,32.77
2022-07-28T11:12:37.263Z,32.57
2022-07-28T11:13:41.026Z,32.76
2022-07-28T11:14:39.081Z,35.13
2022-07-28T11:15:37.122Z,33.48
2022-07-28T11:16:37.235Z,32.82
2022-07-28T11:17:37.232Z,36.51
2022-07-28T11:18:37.055Z,31.57
2022-07-28T11:19:46.681Z,31.77
2022-07-28T11:20:38.102Z,33.38
2022-07-28T11:21:39.801Z,35.51
2022-07-28T11:22:37.070Z,32.45
2022-07-28T11:23:36.960Z,33.58
2022-07-28T11:24:37.062Z,34.42
2022-07-28T11:25:36.996Z,32.09
2022-07-28T11:26:37.040Z,30.68
2022-07-28T11:27:37.016Z,31.56
2022-07-28T11:28:36.939Z,33.08
2022-07-28T11:29:36.920Z,30.60
2022-07-28T11:30:37.073Z,32.12
2022-07-28T11:31:36.922Z,28.57
2022-07-28T11:32:44.039Z,28.86
2022-07-28T11:33:37.870Z,30.51
2022-07-28T11:34:37.930Z,29.25
2022-07-28T11:35:36.908Z,29.58
2022-07-28T11:36:37.122Z,29.64
2022-07-28T11:37:36.883Z,30.94
2022-07-28T11:38:36.914Z,30.94
2022-07-28T11:39:43.360Z,35.16
2022-07-28T11:40:37.855Z,32.31
2022-07-28T11:41:36.921Z,33.07
2022-07-28T11:42:36.810Z,31.12
2022-07-28T11:43:38.901Z,36.32
2022-07-28T11:44:36.867Z,31.76
2022-07-28T11:45:38.494Z,35.66
2022-07-28T11:46:37.591Z,32.18
2022-07-28T11:47:36.743Z,33.33
2022-07-28T11:48:36.762Z,31.91
2022-07-28T11:49:36.860Z,30.90
2022-07-28T11:50:36.765Z,29.93
2022-07-28T11:51:51.307Z,30.44
2022-07-28T11:52:37.736Z,30.99
2022-07-28T11:53:36.703Z,35.99
2022-07-28T11:54:36.755Z,31.26
2022-07-28T11:55:55.580Z,29.35
2022-07-28T11:56:37.828Z,32.05
2022-07-28T11:57:36.662Z,32.14
2022-07-28T11:58:36.636Z,31.38
2022-07-28T11:59:37.407Z,30.97
2022-07-28T12:00:36.631Z,31.87
2022-07-28T12:01:38.347Z,35.00
2022-07-28T12:02:36.784Z,32.56
2022-07-28T12:03:49.202Z,33.64
2022-07-28T12:04:37.820Z,30.90
2022-07-28T12:05:41.880Z,32.89
2022-07-28T12:06:37.614Z,32.72
2022-07-28T12:07:36.569Z,34.74
2022-07-28T12:08:36.532Z,31.87
2022-07-28T12:09:42.273Z,32.26
2022-07-28T12:10:54.155Z,33.95
2022-07-28T12:11:37.601Z,32.76
2022-07-28T12:12:36.528Z,33.33
2022-07-28T12:13:36.553Z,30.15
2022-07-28T12:14:38.898Z,31.79
2022-07-28T12:15:36.493Z,29.83
2022-07-28T12:16:36.712Z,30.74
2022-07-28T12:17:36.473Z,32.33
2022-07-28T12:18:36.451Z,33.59
2022-07-28T12:19:36.505Z,32.31
2022-07-28T12:20:36.431Z,30.45
2022-07-28T12:21:36.499Z,34.87
2022-07-28T12:22:36.433Z,30.81
2022-07-28T12:23:45.712Z,30.04
2022-07-28T12:24:44.798Z,30.93
2022-07-28T12:25:37.415Z,30.95
2022-07-28T12:26:40.691Z,31.87
2022-07-28T12:27:37.546Z,32.87
2022-07-28T12:28:36.382Z,31.31
2022-07-28T12:29:36.431Z,34.48
2022-07-28T12:30:36.335Z,35.86
2022-07-28T12:31:36.420Z,31.48
2022-07-28T12:32:36.318Z,31.01
2022-07-28T12:33:36.304Z,32.16
2022-07-28T12:34:36.312Z,33.34
2022-07-28T12:35:36.297Z,33.13
2022-07-28T12:36:36.344Z,32.72
2022-07-28T12:37:36.290Z,32.01
2022-07-28T12:38:36.238Z,33.18
2022-07-28T12:39:36.253Z,32.98
2022-07-28T12:40:36.266Z,33.46
2022-07-28T12:41:36.227Z,31.29
2022-07-28T12:42:36.278Z,34.20
2022-07-28T12:43:36.226Z,31.46
2022-07-28T12:44:36.225Z,31.38
2022-07-28T12:45:36.270Z,33.74
2022-07-28T12:46:36.222Z,31.10
2022-07-28T12:47:36.211Z,31.70
2022-07-28T12:48:36.195Z,30.91
2022-07-28T12:49:36.195Z,33.20
2022-07-28T12:50:36.157Z,32.29
2022-07-28T12:51:36.141Z,31.41
2022-07-28T12:52:36.168Z,32.97